sensor_id;sensor_type;location;lat;lon;timestamp;temperature;humidity
4245;DHT22;2136;48.502;9.194;2022-11-13T00:01:57;5.90;99.90
4245;DHT22;2136;48.502;9.194;2022-11-13T00:04:24;5.90;99.90
4245;DHT22;2136;48.502;9.194;2022-11-13T00:06:50;5.90;99.90
4245;DHT22;2136;48.502;9.194;2022-11-13T00:09:17;6.00;99.90
4245;DHT22;2136;48.502;9.194;2022-11-13T00:11:44;6.10;99.90
4245;DHT22;2136;48.502;9.194;2022-11-13T00:14:12;6.20;99.90
4245;DHT22;2136;48.502;9.194;2022-11-13T00:16:39;6.20;99.90
4245;DHT22;2136;48.502;9.194;2022-11-13T00:19:06;6.20;99.90
4245;DHT22;2136;48.502;9.194;2022-11-13T00:21:32;6.20;99.90
4245;DHT22;2136;48.502;9.194;2022-11-13T00:23:59;6.20;99.90
4245;DHT22;2136;48.502;9.194;2022-11-13T00:26:28;6.20;99.90
4245;DHT22;2136;48.502;9.194;2022-11-13T00:28:57;6.20;99.90
4245;DHT22;2136;48.502;9.194;2022-11-13T00:31:26;6.20;99.90
4245;DHT22;2136;48.502;9.194;2022-11-13T00:33:53;6.20;99.90
4245;DHT22;2136;48.502;9.194;2022-11-13T00:36:22;6.10;99.90
4245;DHT22;2136;48.502;9.194;2022-11-13T00:38:49;6.10;99.90
4245;DHT22;2136;48.502;9.194;2022-11-13T00:41:17;6.20;99.90
4245;DHT22;2136;48.502;9.194;2022-11-13T00:43:44;6.10;99.90
4245;DHT22;2136;48.502;9.194;2022-11-13T00:46:10;6.10;99.90
4245;DHT22;2136;48.502;9.194;2022-11-13T00:48:39;6.10;99.90
4245;DHT22;2136;48.502;9.194;2022-11-13T00:51:06;6.10;99.90
4245;DHT22;2136;48.502;9.194;2022-11-13T00:53:33;6.10;99.90
4245;DHT22;2136;48.502;9.194;2022-11-13T00:56:00;6.10;99.90
4245;DHT22;2136;48.502;9.194;2022-11-13T00:58:27;6.10;99.90
4245;DHT22;2136;48.502;9.194;2022-11-13T01:00:54;6.10;99.90
4245;DHT22;2136;48.502;9.194;2022-11-13T01:03:21;6.10;99.90
4245;DHT22;2136;48.502;9.194;2022-11-13T01:05:49;6.20;99.90
4245;DHT22;2136;48.502;9.194;2022-11-13T01:08:15;6.10;99.90
4245;DHT22;2136;48.502;9.194;2022-11-13T01:10:44;6.10;99.90
4245;DHT22;2136;48.502;9.194;2022-11-13T01:13:11;6.10;99.90
4245;DHT22;2136;48.502;9.194;2022-11-13T01:15:39;6.10;99.90
4245;DHT22;2136;48.502;9.194;2022-11-13T01:18:06;6.10;99.90
4245;DHT22;2136;48.502;9.194;2022-11-13T01:20:33;6.10;99.90
4245;DHT22;2136;48.502;9.194;2022-11-13T01:23:01;6.10;99.90
4245;DHT22;2136;48.502;9.194;2022-11-13T01:25:29;6.10;99.90
4245;DHT22;2136;48.502;9.194;2022-11-13T01:27:56;6.10;99.90
4245;DHT22;2136;48.502;9.194;2022-11-13T01:30:23;6.00;99.90
4245;DHT22;2136;48.502;9.194;2022-11-13T01:32:50;6.00;99.90
4245;DHT22;2136;48.502;9.194;2022-11-13T01:35:17;6.00;99.90
4245;DHT22;2136;48.502;9.194;2022-11-13T01:37:44;6.10;99.90
4245;DHT22;2136;48.502;9.194;2022-11-13T01:40:13;6.00;99.90
4245;DHT22;2136;48.502;9.194;2022-11-13T01:42:40;6.00;99.90
4245;DHT22;2136;48.502;9.194;2022-11-13T01:48:11;5.90;99.90
4245;DHT22;2136;48.502;9.194;2022-11-13T01:50:38;5.90;99.90
4245;DHT22;2136;48.502;9.194;2022-11-13T01:53:06;5.90;99.90
4245;DHT22;2136;48.502;9.194;2022-11-13T01:55:35;5.90;99.90
4245;DHT22;2136;48.502;9.194;2022-11-13T01:58:03;5.90;99.90
4245;DHT22;2136;48.502;9.194;2022-11-13T02:00:31;5.90;99.90
4245;DHT22;2136;48.502;9.194;2022-11-13T02:02:58;5.90;99.90
4245;DHT22;2136;48.502;9.194;2022-11-13T02:05:25;5.90;99.90
4245;DHT22;2136;48.502;9.194;2022-11-13T02:07:52;5.90;99.90
4245;DHT22;2136;48.502;9.194;2022-11-13T02:10:19;5.90;99.90
4245;DHT22;2136;48.502;9.194;2022-11-13T02:12:49;5.90;99.90
4245;DHT22;2136;48.502;9.194;2022-11-13T02:15:18;5.90;99.90
4245;DHT22;2136;48.502;9.194;2022-11-13T02:17:50;5.90;99.90
4245;DHT22;2136;48.502;9.194;2022-11-13T02:20:20;5.90;99.90
4245;DHT22;2136;48.502;9.194;2022-11-13T02:22:53;5.90;99.90
4245;DHT22;2136;48.502;9.194;2022-11-13T02:25:24;5.90;99.90
4245;DHT22;2136;48.502;9.194;2022-11-13T02:27:52;5.90;99.90
4245;DHT22;2136;48.502;9.194;2022-11-13T02:30:21;5.90;99.90
4245;DHT22;2136;48.502;9.194;2022-11-13T02:32:50;5.90;99.90
4245;DHT22;2136;48.502;9.194;2022-11-13T02:35:20;5.90;99.90
4245;DHT22;2136;48.502;9.194;2022-11-13T02:37:47;5.90;99.90
4245;DHT22;2136;48.502;9.194;2022-11-13T02:40:14;5.90;99.90
4245;DHT22;2136;48.502;9.194;2022-11-13T02:42:42;6.00;99.90
4245;DHT22;2136;48.502;9.194;2022-11-13T02:45:10;5.90;99.90
4245;DHT22;2136;48.502;9.194;2022-11-13T02:47:37;5.80;99.90
4245;DHT22;2136;48.502;9.194;2022-11-13T02:50:05;5.80;99.90
4245;DHT22;2136;48.502;9.194;2022-11-13T02:52:32;5.80;99.90
4245;DHT22;2136;48.502;9.194;2022-11-13T02:54:59;5.80;99.90
4245;DHT22;2136;48.502;9.194;2022-11-13T02:57:26;5.70;99.90
4245;DHT22;2136;48.502;9.194;2022-11-13T02:59:54;5.70;99.90
4245;DHT22;2136;48.502;9.194;2022-11-13T03:02:21;5.70;99.90
4245;DHT22;2136;48.502;9.194;2022-11-13T03:04:48;5.60;99.90
4245;DHT22;2136;48.502;9.194;2022-11-13T03:07:14;5.60;99.90
4245;DHT22;2136;48.502;9.194;2022-11-13T03:09:41;5.60;99.90
4245;DHT22;2136;48.502;9.194;2022-11-13T03:12:09;5.70;99.90
4245;DHT22;2136;48.502;9.194;2022-11-13T03:14:35;5.50;99.90
4245;DHT22;2136;48.502;9.194;2022-11-13T03:17:04;5.50;99.90
4245;DHT22;2136;48.502;9.194;2022-11-13T03:19:30;5.50;99.90
4245;DHT22;2136;48.502;9.194;2022-11-13T03:21:57;5.40;99.90
4245;DHT22;2136;48.502;9.194;2022-11-13T03:24:24;5.60;99.90
4245;DHT22;2136;48.502;9.194;2022-11-13T03:26:51;5.50;99.90
4245;DHT22;2136;48.502;9.194;2022-11-13T03:29:18;5.40;99.90
4245;DHT22;2136;48.502;9.194;2022-11-13T03:31:44;5.40;99.90
4245;DHT22;2136;48.502;9.194;2022-11-13T03:34:13;5.40;99.90
4245;DHT22;2136;48.502;9.194;2022-11-13T03:36:40;5.50;99.90
4245;DHT22;2136;48.502;9.194;2022-11-13T03:39:07;5.40;99.90
4245;DHT22;2136;48.502;9.194;2022-11-13T03:41:33;5.40;99.90
4245;DHT22;2136;48.502;9.194;2022-11-13T03:44:00;5.30;99.90
4245;DHT22;2136;48.502;9.194;2022-11-13T03:46:27;5.30;99.90
4245;DHT22;2136;48.502;9.194;2022-11-13T03:48:54;5.30;99.90
4245;DHT22;2136;48.502;9.194;2022-11-13T03:51:22;5.40;99.90
4245;DHT22;2136;48.502;9.194;2022-11-13T03:53:49;5.40;99.90
4245;DHT22;2136;48.502;9.194;2022-11-13T03:56:15;5.30;99.90
4245;DHT22;2136;48.502;9.194;2022-11-13T03:58:42;5.30;99.90
4245;DHT22;2136;48.502;9.194;2022-11-13T04:01:09;5.40;99.90
4245;DHT22;2136;48.502;9.194;2022-11-13T04:03:36;5.40;99.90
4245;DHT22;2136;48.502;9.194;2022-11-13T04:06:03;5.40;99.90
4245;DHT22;2136;48.502;9.194;2022-11-13T04:08:31;5.40;99.90
4245;DHT22;2136;48.502;9.194;2022-11-13T04:11:05;5.40;99.90
4245;DHT22;2136;48.502;9.194;2022-11-13T04:13:32;5.40;99.90
4245;DHT22;2136;48.502;9.194;2022-11-13T04:15:59;5.40;99.90
4245;DHT22;2136;48.502;9.194;2022-11-13T04:18:26;5.40;99.90
4245;DHT22;2136;48.502;9.194;2022-11-13T04:20:58;5.40;99.90
4245;DHT22;2136;48.502;9.194;2022-11-13T04:23:25;5.50;99.90
4245;DHT22;2136;48.502;9.194;2022-11-13T04:25:53;5.40;99.90
4245;DHT22;2136;48.502;9.194;2022-11-13T04:28:20;5.50;99.90
4245;DHT22;2136;48.502;9.194;2022-11-13T04:30:47;5.50;99.90
4245;DHT22;2136;48.502;9.194;2022-11-13T04:33:14;5.60;99.90
4245;DHT22;2136;48.502;9.194;2022-11-13T04:35:40;5.50;99.90
4245;DHT22;2136;48.502;9.194;2022-11-13T04:38:10;5.50;99.90
4245;DHT22;2136;48.502;9.194;2022-11-13T04:40:37;5.50;99.90
4245;DHT22;2136;48.502;9.194;2022-11-13T04:43:05;5.50;99.90
4245;DHT22;2136;48.502;9.194;2022-11-13T04:45:31;5.50;99.90
4245;DHT22;2136;48.502;9.194;2022-11-13T04:47:58;5.60;99.90
4245;DHT22;2136;48.502;9.194;2022-11-13T04:50:25;5.50;99.90
4245;DHT22;2136;48.502;9.194;2022-11-13T04:52:52;5.60;99.90
4245;DHT22;2136;48.502;9.194;2022-11-13T04:55:19;5.60;99.90
4245;DHT22;2136;48.502;9.194;2022-11-13T04:57:46;5.60;99.90
4245;DHT22;2136;48.502;9.194;2022-11-13T05:00:17;5.60;99.90
4245;DHT22;2136;48.502;9.194;2022-11-13T05:02:44;5.60;99.90
4245;DHT22;2136;48.502;9.194;2022-11-13T05:05:11;5.60;99.90
4245;DHT22;2136;48.502;9.194;2022-11-13T05:07:38;5.60;99.90
4245;DHT22;2136;48.502;9.194;2022-11-13T05:10:05;5.60;99.90
4245;DHT22;2136;48.502;9.194;2022-11-13T05:12:32;5.60;99.90
4245;DHT22;2136;48.502;9.194;2022-11-13T05:14:58;5.60;99.90
4245;DHT22;2136;48.502;9.194;2022-11-13T05:17:26;5.70;99.90
4245;DHT22;2136;48.502;9.194;2022-11-13T05:19:53;5.60;99.90
4245;DHT22;2136;48.502;9.194;2022-11-13T05:22:20;5.60;99.90
4245;DHT22;2136;48.502;9.194;2022-11-13T05:24:47;5.60;99.90
4245;DHT22;2136;48.502;9.194;2022-11-13T05:27:14;5.50;99.90
4245;DHT22;2136;48.502;9.194;2022-11-13T05:29:40;5.50;99.90
4245;DHT22;2136;48.502;9.194;2022-11-13T05:32:07;5.60;99.90
4245;DHT22;2136;48.502;9.194;2022-11-13T05:34:35;5.60;99.90
4245;DHT22;2136;48.502;9.194;2022-11-13T05:37:02;5.60;99.90
4245;DHT22;2136;48.502;9.194;2022-11-13T05:39:29;5.50;99.90
4245;DHT22;2136;48.502;9.194;2022-11-13T05:41:56;5.50;99.90
4245;DHT22;2136;48.502;9.194;2022-11-13T05:44:22;5.50;99.90
4245;DHT22;2136;48.502;9.194;2022-11-13T05:46:49;5.50;99.90
4245;DHT22;2136;48.502;9.194;2022-11-13T05:49:16;5.50;99.90
4245;DHT22;2136;48.502;9.194;2022-11-13T05:51:44;5.50;99.90
4245;DHT22;2136;48.502;9.194;2022-11-13T05:54:11;5.50;99.90
4245;DHT22;2136;48.502;9.194;2022-11-13T05:56:38;5.50;99.90
4245;DHT22;2136;48.502;9.194;2022-11-13T05:59:05;5.40;99.90
4245;DHT22;2136;48.502;9.194;2022-11-13T06:01:34;5.40;99.90
4245;DHT22;2136;48.502;9.194;2022-11-13T06:04:02;5.40;99.90
4245;DHT22;2136;48.502;9.194;2022-11-13T06:06:31;5.40;99.90
4245;DHT22;2136;48.502;9.194;2022-11-13T06:09:02;5.30;99.90
4245;DHT22;2136;48.502;9.194;2022-11-13T06:11:30;5.30;99.90
4245;DHT22;2136;48.502;9.194;2022-11-13T06:13:57;5.30;99.90
4245;DHT22;2136;48.502;9.194;2022-11-13T06:16:27;5.30;99.90
4245;DHT22;2136;48.502;9.194;2022-11-13T06:18:55;5.30;99.90
4245;DHT22;2136;48.502;9.194;2022-11-13T06:21:24;5.30;99.90
4245;DHT22;2136;48.502;9.194;2022-11-13T06:23:52;5.40;99.90
4245;DHT22;2136;48.502;9.194;2022-11-13T06:26:22;5.20;99.90
4245;DHT22;2136;48.502;9.194;2022-11-13T06:28:49;5.20;99.90
4245;DHT22;2136;48.502;9.194;2022-11-13T06:31:18;5.30;99.90
4245;DHT22;2136;48.502;9.194;2022-11-13T06:33:45;5.30;99.90
4245;DHT22;2136;48.502;9.194;2022-11-13T06:36:13;5.30;99.90
4245;DHT22;2136;48.502;9.194;2022-11-13T06:38:41;5.30;99.90
4245;DHT22;2136;48.502;9.194;2022-11-13T06:41:12;5.30;99.90
4245;DHT22;2136;48.502;9.194;2022-11-13T06:43:41;5.20;99.90
4245;DHT22;2136;48.502;9.194;2022-11-13T06:46:11;5.20;99.90
4245;DHT22;2136;48.502;9.194;2022-11-13T06:48:38;5.20;99.90
4245;DHT22;2136;48.502;9.194;2022-11-13T06:51:06;5.20;99.90
4245;DHT22;2136;48.502;9.194;2022-11-13T06:53:33;5.20;99.90
4245;DHT22;2136;48.502;9.194;2022-11-13T06:56:00;5.30;99.90
4245;DHT22;2136;48.502;9.194;2022-11-13T06:58:30;5.30;99.90
4245;DHT22;2136;48.502;9.194;2022-11-13T07:01:04;5.30;99.90
4245;DHT22;2136;48.502;9.194;2022-11-13T07:03:31;5.30;99.90
4245;DHT22;2136;48.502;9.194;2022-11-13T07:06:00;5.30;99.90
4245;DHT22;2136;48.502;9.194;2022-11-13T07:08:27;5.30;99.90
4245;DHT22;2136;48.502;9.194;2022-11-13T07:10:54;5.30;99.90
4245;DHT22;2136;48.502;9.194;2022-11-13T07:13:22;5.30;99.90
4245;DHT22;2136;48.502;9.194;2022-11-13T07:15:49;5.30;99.90
4245;DHT22;2136;48.502;9.194;2022-11-13T07:18:18;5.40;99.90
4245;DHT22;2136;48.502;9.194;2022-11-13T07:20:47;5.30;99.90
4245;DHT22;2136;48.502;9.194;2022-11-13T07:23:14;5.40;99.90
4245;DHT22;2136;48.502;9.194;2022-11-13T07:25:40;5.40;99.90
4245;DHT22;2136;48.502;9.194;2022-11-13T07:28:07;5.50;99.90
4245;DHT22;2136;48.502;9.194;2022-11-13T07:30:34;5.50;99.90
4245;DHT22;2136;48.502;9.194;2022-11-13T07:33:01;5.40;99.90
4245;DHT22;2136;48.502;9.194;2022-11-13T07:35:30;5.40;99.90
4245;DHT22;2136;48.502;9.194;2022-11-13T07:37:57;5.40;99.90
4245;DHT22;2136;48.502;9.194;2022-11-13T07:40:24;5.50;99.90
4245;DHT22;2136;48.502;9.194;2022-11-13T07:42:56;5.50;99.90
4245;DHT22;2136;48.502;9.194;2022-11-13T07:45:23;5.60;99.90
4245;DHT22;2136;48.502;9.194;2022-11-13T07:47:50;5.60;99.90
4245;DHT22;2136;48.502;9.194;2022-11-13T07:50:17;5.60;99.90
4245;DHT22;2136;48.502;9.194;2022-11-13T07:52:45;5.60;99.90
4245;DHT22;2136;48.502;9.194;2022-11-13T07:55:12;5.60;99.90
4245;DHT22;2136;48.502;9.194;2022-11-13T07:57:39;5.60;99.90
4245;DHT22;2136;48.502;9.194;2022-11-13T08:00:07;5.70;99.90
4245;DHT22;2136;48.502;9.194;2022-11-13T08:02:34;5.80;99.90
4245;DHT22;2136;48.502;9.194;2022-11-13T08:05:01;5.80;99.90
4245;DHT22;2136;48.502;9.194;2022-11-13T08:07:28;5.90;99.90
4245;DHT22;2136;48.502;9.194;2022-11-13T08:09:56;5.90;99.90
4245;DHT22;2136;48.502;9.194;2022-11-13T08:12:23;5.90;99.90
4245;DHT22;2136;48.502;9.194;2022-11-13T08:14:49;5.90;99.90
4245;DHT22;2136;48.502;9.194;2022-11-13T08:17:16;6.00;99.90
4245;DHT22;2136;48.502;9.194;2022-11-13T08:19:43;6.00;99.90
4245;DHT22;2136;48.502;9.194;2022-11-13T08:22:10;6.10;99.90
4245;DHT22;2136;48.502;9.194;2022-11-13T08:24:37;6.10;99.90
4245;DHT22;2136;48.502;9.194;2022-11-13T08:27:05;6.20;99.90
4245;DHT22;2136;48.502;9.194;2022-11-13T08:29:32;6.20;99.90
4245;DHT22;2136;48.502;9.194;2022-11-13T08:32:01;6.30;99.90
4245;DHT22;2136;48.502;9.194;2022-11-13T08:34:28;6.40;99.90
4245;DHT22;2136;48.502;9.194;2022-11-13T08:36:55;6.40;99.90
4245;DHT22;2136;48.502;9.194;2022-11-13T08:39:22;6.40;99.90
4245;DHT22;2136;48.502;9.194;2022-11-13T08:41:48;6.40;99.90
4245;DHT22;2136;48.502;9.194;2022-11-13T08:44:16;6.40;99.90
4245;DHT22;2136;48.502;9.194;2022-11-13T08:46:43;6.40;99.90
4245;DHT22;2136;48.502;9.194;2022-11-13T08:49:10;6.40;99.90
4245;DHT22;2136;48.502;9.194;2022-11-13T08:51:37;6.40;99.90
4245;DHT22;2136;48.502;9.194;2022-11-13T08:54:04;6.40;99.90
4245;DHT22;2136;48.502;9.194;2022-11-13T08:56:31;6.50;99.90
4245;DHT22;2136;48.502;9.194;2022-11-13T08:58:58;6.50;99.70
4245;DHT22;2136;48.502;9.194;2022-11-13T09:01:26;6.50;98.80
4245;DHT22;2136;48.502;9.194;2022-11-13T09:03:52;6.50;98.10
4245;DHT22;2136;48.502;9.194;2022-11-13T09:06:19;6.50;98.00
4245;DHT22;2136;48.502;9.194;2022-11-13T09:08:46;6.50;98.00
4245;DHT22;2136;48.502;9.194;2022-11-13T09:11:13;6.50;98.50
4245;DHT22;2136;48.502;9.194;2022-11-13T09:13:40;6.60;98.10
4245;DHT22;2136;48.502;9.194;2022-11-13T09:16:07;6.60;97.90
4245;DHT22;2136;48.502;9.194;2022-11-13T09:18:35;6.60;98.40
4245;DHT22;2136;48.502;9.194;2022-11-13T09:21:02;6.60;99.00
4245;DHT22;2136;48.502;9.194;2022-11-13T09:23:29;6.70;98.70
4245;DHT22;2136;48.502;9.194;2022-11-13T09:25:59;6.70;98.50
4245;DHT22;2136;48.502;9.194;2022-11-13T09:28:25;6.80;99.00
4245;DHT22;2136;48.502;9.194;2022-11-13T09:30:52;6.90;99.00
4245;DHT22;2136;48.502;9.194;2022-11-13T09:33:19;7.00;97.90
4245;DHT22;2136;48.502;9.194;2022-11-13T09:35:47;7.00;97.70
4245;DHT22;2136;48.502;9.194;2022-11-13T09:38:15;7.10;97.70
4245;DHT22;2136;48.502;9.194;2022-11-13T09:40:46;7.10;97.80
4245;DHT22;2136;48.502;9.194;2022-11-13T09:43:23;7.20;97.30
4245;DHT22;2136;48.502;9.194;2022-11-13T09:45:53;7.20;96.50
4245;DHT22;2136;48.502;9.194;2022-11-13T09:48:26;7.20;95.50
4245;DHT22;2136;48.502;9.194;2022-11-13T09:50:55;7.20;95.40
4245;DHT22;2136;48.502;9.194;2022-11-13T09:53:24;7.20;95.40
4245;DHT22;2136;48.502;9.194;2022-11-13T09:55:56;7.20;95.10
4245;DHT22;2136;48.502;9.194;2022-11-13T09:58:33;7.20;94.70
4245;DHT22;2136;48.502;9.194;2022-11-13T10:01:05;7.30;94.70
4245;DHT22;2136;48.502;9.194;2022-11-13T10:03:38;7.40;94.60
4245;DHT22;2136;48.502;9.194;2022-11-13T10:06:13;7.40;95.00
4245;DHT22;2136;48.502;9.194;2022-11-13T10:08:48;7.50;94.40
4245;DHT22;2136;48.502;9.194;2022-11-13T10:11:24;7.50;94.30
4245;DHT22;2136;48.502;9.194;2022-11-13T10:13:58;7.60;94.60
4245;DHT22;2136;48.502;9.194;2022-11-13T10:16:32;7.60;94.20
4245;DHT22;2136;48.502;9.194;2022-11-13T10:19:06;7.70;93.70
4245;DHT22;2136;48.502;9.194;2022-11-13T10:21:40;7.70;93.00
4245;DHT22;2136;48.502;9.194;2022-11-13T10:24:21;7.70;92.60
4245;DHT22;2136;48.502;9.194;2022-11-13T10:26:50;7.70;93.00
4245;DHT22;2136;48.502;9.194;2022-11-13T10:29:18;7.80;92.90
4245;DHT22;2136;48.502;9.194;2022-11-13T10:31:47;7.80;93.40
4245;DHT22;2136;48.502;9.194;2022-11-13T10:34:14;7.90;93.60
4245;DHT22;2136;48.502;9.194;2022-11-13T10:36:56;8.00;93.90
4245;DHT22;2136;48.502;9.194;2022-11-13T10:39:25;8.10;93.80
4245;DHT22;2136;48.502;9.194;2022-11-13T10:41:54;8.20;93.10
4245;DHT22;2136;48.502;9.194;2022-11-13T10:44:25;8.30;92.20
4245;DHT22;2136;48.502;9.194;2022-11-13T10:47:03;8.30;92.20
4245;DHT22;2136;48.502;9.194;2022-11-13T10:49:31;8.40;92.20
4245;DHT22;2136;48.502;9.194;2022-11-13T10:51:59;8.40;91.50
4245;DHT22;2136;48.502;9.194;2022-11-13T10:54:28;8.50;91.60
4245;DHT22;2136;48.502;9.194;2022-11-13T10:56:57;8.50;91.10
4245;DHT22;2136;48.502;9.194;2022-11-13T10:59:24;8.50;90.60
4245;DHT22;2136;48.502;9.194;2022-11-13T11:01:51;8.60;90.30
4245;DHT22;2136;48.502;9.194;2022-11-13T11:04:22;8.60;90.50
4245;DHT22;2136;48.502;9.194;2022-11-13T11:06:52;8.70;91.00
4245;DHT22;2136;48.502;9.194;2022-11-13T11:09:22;8.80;91.20
4245;DHT22;2136;48.502;9.194;2022-11-13T11:11:58;8.70;90.80
4245;DHT22;2136;48.502;9.194;2022-11-13T11:14:58;8.80;90.50
4245;DHT22;2136;48.502;9.194;2022-11-13T11:17:31;8.80;91.10
4245;DHT22;2136;48.502;9.194;2022-11-13T11:20:00;9.00;90.70
4245;DHT22;2136;48.502;9.194;2022-11-13T11:22:32;8.90;90.40
4245;DHT22;2136;48.502;9.194;2022-11-13T11:25:08;9.00;90.70
4245;DHT22;2136;48.502;9.194;2022-11-13T11:27:40;9.10;90.70
4245;DHT22;2136;48.502;9.194;2022-11-13T11:30:16;9.20;88.30
4245;DHT22;2136;48.502;9.194;2022-11-13T11:32:48;9.20;86.10
4245;DHT22;2136;48.502;9.194;2022-11-13T11:35:19;9.10;85.60
4245;DHT22;2136;48.502;9.194;2022-11-13T11:37:51;9.00;86.50
4245;DHT22;2136;48.502;9.194;2022-11-13T11:40:26;9.00;87.90
4245;DHT22;2136;48.502;9.194;2022-11-13T11:43:00;9.10;89.30
4245;DHT22;2136;48.502;9.194;2022-11-13T11:45:32;9.20;89.70
4245;DHT22;2136;48.502;9.194;2022-11-13T11:48:01;9.30;89.30
4245;DHT22;2136;48.502;9.194;2022-11-13T11:50:35;9.50;89.50
4245;DHT22;2136;48.502;9.194;2022-11-13T11:53:09;9.60;88.90
4245;DHT22;2136;48.502;9.194;2022-11-13T11:56:00;9.70;87.60
4245;DHT22;2136;48.502;9.194;2022-11-13T11:58:48;9.80;86.50
4245;DHT22;2136;48.502;9.194;2022-11-13T12:01:27;9.80;85.80
4245;DHT22;2136;48.502;9.194;2022-11-13T12:04:13;9.90;84.70
4245;DHT22;2136;48.502;9.194;2022-11-13T12:06:50;9.90;85.50
4245;DHT22;2136;48.502;9.194;2022-11-13T12:09:27;10.00;85.40
4245;DHT22;2136;48.502;9.194;2022-11-13T12:12:02;10.10;87.00
4245;DHT22;2136;48.502;9.194;2022-11-13T12:14:42;10.20;86.10
4245;DHT22;2136;48.502;9.194;2022-11-13T12:17:33;10.20;84.80
4245;DHT22;2136;48.502;9.194;2022-11-13T12:20:10;10.10;83.10
4245;DHT22;2136;48.502;9.194;2022-11-13T12:22:43;9.90;83.30
4245;DHT22;2136;48.502;9.194;2022-11-13T12:25:18;9.80;83.90
4245;DHT22;2136;48.502;9.194;2022-11-13T12:27:53;9.70;85.20
4245;DHT22;2136;48.502;9.194;2022-11-13T12:30:23;9.60;86.20
4245;DHT22;2136;48.502;9.194;2022-11-13T12:33:10;9.50;87.20
4245;DHT22;2136;48.502;9.194;2022-11-13T12:35:40;9.40;87.30
4245;DHT22;2136;48.502;9.194;2022-11-13T12:38:18;9.30;86.80
4245;DHT22;2136;48.502;9.194;2022-11-13T12:40:53;9.20;87.40
4245;DHT22;2136;48.502;9.194;2022-11-13T12:43:33;9.20;88.00
4245;DHT22;2136;48.502;9.194;2022-11-13T12:46:06;9.20;89.50
4245;DHT22;2136;48.502;9.194;2022-11-13T12:48:35;9.10;90.30
4245;DHT22;2136;48.502;9.194;2022-11-13T12:51:05;9.10;90.80
4245;DHT22;2136;48.502;9.194;2022-11-13T12:53:44;9.10;91.10
4245;DHT22;2136;48.502;9.194;2022-11-13T12:56:15;9.30;91.60
4245;DHT22;2136;48.502;9.194;2022-11-13T12:58:53;9.20;91.60
4245;DHT22;2136;48.502;9.194;2022-11-13T13:01:21;9.20;92.00
4245;DHT22;2136;48.502;9.194;2022-11-13T13:04:10;9.20;92.30
4245;DHT22;2136;48.502;9.194;2022-11-13T13:06:53;9.30;92.80
4245;DHT22;2136;48.502;9.194;2022-11-13T13:09:38;9.30;93.20
4245;DHT22;2136;48.502;9.194;2022-11-13T13:12:15;9.40;93.70
4245;DHT22;2136;48.502;9.194;2022-11-13T13:15:10;9.50;93.90
4245;DHT22;2136;48.502;9.194;2022-11-13T13:17:37;9.50;93.80
4245;DHT22;2136;48.502;9.194;2022-11-13T13:20:30;9.70;94.00
4245;DHT22;2136;48.502;9.194;2022-11-13T13:22:59;10.10;92.90
4245;DHT22;2136;48.502;9.194;2022-11-13T13:25:28;10.60;89.80
4245;DHT22;2136;48.502;9.194;2022-11-13T13:27:56;11.30;85.00
4245;DHT22;2136;48.502;9.194;2022-11-13T13:30:25;11.90;82.20
4245;DHT22;2136;48.502;9.194;2022-11-13T13:33:15;12.40;80.00
4245;DHT22;2136;48.502;9.194;2022-11-13T13:35:50;12.60;78.10
4245;DHT22;2136;48.502;9.194;2022-11-13T13:38:26;12.80;75.10
4245;DHT22;2136;48.502;9.194;2022-11-13T13:41:04;13.20;72.90
4245;DHT22;2136;48.502;9.194;2022-11-13T13:43:48;13.20;71.60
4245;DHT22;2136;48.502;9.194;2022-11-13T13:46:23;13.00;70.10
4245;DHT22;2136;48.502;9.194;2022-11-13T13:48:53;12.80;69.70
4245;DHT22;2136;48.502;9.194;2022-11-13T13:51:24;12.60;68.70
4245;DHT22;2136;48.502;9.194;2022-11-13T13:53:53;12.50;68.60
4245;DHT22;2136;48.502;9.194;2022-11-13T13:56:21;12.50;68.60
4245;DHT22;2136;48.502;9.194;2022-11-13T13:58:49;12.30;66.80
4245;DHT22;2136;48.502;9.194;2022-11-13T14:01:27;12.10;66.30
4245;DHT22;2136;48.502;9.194;2022-11-13T14:04:05;12.00;66.30
4245;DHT22;2136;48.502;9.194;2022-11-13T14:06:46;11.90;67.00
4245;DHT22;2136;48.502;9.194;2022-11-13T14:09:17;11.80;68.20
4245;DHT22;2136;48.502;9.194;2022-11-13T14:11:44;11.80;68.80
4245;DHT22;2136;48.502;9.194;2022-11-13T14:14:17;11.70;68.60
4245;DHT22;2136;48.502;9.194;2022-11-13T14:16:49;11.70;69.00
4245;DHT22;2136;48.502;9.194;2022-11-13T14:19:16;11.60;68.90
4245;DHT22;2136;48.502;9.194;2022-11-13T14:21:44;11.70;69.30
4245;DHT22;2136;48.502;9.194;2022-11-13T14:24:16;11.80;69.30
4245;DHT22;2136;48.502;9.194;2022-11-13T14:26:45;11.80;69.50
4245;DHT22;2136;48.502;9.194;2022-11-13T14:29:20;11.80;69.70
4245;DHT22;2136;48.502;9.194;2022-11-13T14:31:50;12.00;70.00
4245;DHT22;2136;48.502;9.194;2022-11-13T14:34:19;12.10;70.00
4245;DHT22;2136;48.502;9.194;2022-11-13T14:36:47;12.30;69.90
4245;DHT22;2136;48.502;9.194;2022-11-13T14:39:21;12.40;69.60
4245;DHT22;2136;48.502;9.194;2022-11-13T14:41:51;12.40;68.90
4245;DHT22;2136;48.502;9.194;2022-11-13T14:44:25;12.50;68.90
4245;DHT22;2136;48.502;9.194;2022-11-13T14:47:00;12.60;69.70
4245;DHT22;2136;48.502;9.194;2022-11-13T14:49:29;12.80;70.60
4245;DHT22;2136;48.502;9.194;2022-11-13T14:51:57;13.10;70.10
4245;DHT22;2136;48.502;9.194;2022-11-13T14:54:30;13.30;69.10
4245;DHT22;2136;48.502;9.194;2022-11-13T14:57:06;13.50;68.60
4245;DHT22;2136;48.502;9.194;2022-11-13T14:59:34;13.60;67.90
4245;DHT22;2136;48.502;9.194;2022-11-13T15:02:03;13.50;67.60
4245;DHT22;2136;48.502;9.194;2022-11-13T15:04:30;13.50;67.20
4245;DHT22;2136;48.502;9.194;2022-11-13T15:06:59;13.20;66.70
4245;DHT22;2136;48.502;9.194;2022-11-13T15:09:26;12.90;67.50
4245;DHT22;2136;48.502;9.194;2022-11-13T15:11:53;12.70;66.90
4245;DHT22;2136;48.502;9.194;2022-11-13T15:14:21;12.50;67.20
4245;DHT22;2136;48.502;9.194;2022-11-13T15:16:49;12.20;67.70
4245;DHT22;2136;48.502;9.194;2022-11-13T15:19:24;12.00;68.50
4245;DHT22;2136;48.502;9.194;2022-11-13T15:21:53;11.80;69.30
4245;DHT22;2136;48.502;9.194;2022-11-13T15:24:20;11.60;70.10
4245;DHT22;2136;48.502;9.194;2022-11-13T15:26:47;11.40;71.00
4245;DHT22;2136;48.502;9.194;2022-11-13T15:29:14;11.20;71.90
4245;DHT22;2136;48.502;9.194;2022-11-13T15:31:43;11.10;73.00
4245;DHT22;2136;48.502;9.194;2022-11-13T15:34:10;10.90;73.80
4245;DHT22;2136;48.502;9.194;2022-11-13T15:36:39;10.80;74.60
4245;DHT22;2136;48.502;9.194;2022-11-13T15:39:07;10.70;75.70
4245;DHT22;2136;48.502;9.194;2022-11-13T15:41:35;10.50;76.40
4245;DHT22;2136;48.502;9.194;2022-11-13T15:44:05;10.40;77.20
4245;DHT22;2136;48.502;9.194;2022-11-13T15:46:32;10.30;78.10
4245;DHT22;2136;48.502;9.194;2022-11-13T15:48:59;10.20;78.90
4245;DHT22;2136;48.502;9.194;2022-11-13T15:51:30;10.00;79.70
4245;DHT22;2136;48.502;9.194;2022-11-13T15:54:01;9.90;81.50
4245;DHT22;2136;48.502;9.194;2022-11-13T15:56:30;9.80;82.40
4245;DHT22;2136;48.502;9.194;2022-11-13T15:58:57;9.70;83.50
4245;DHT22;2136;48.502;9.194;2022-11-13T16:01:24;9.60;84.50
4245;DHT22;2136;48.502;9.194;2022-11-13T16:03:51;9.50;85.40
4245;DHT22;2136;48.502;9.194;2022-11-13T16:06:19;9.40;86.90
4245;DHT22;2136;48.502;9.194;2022-11-13T16:08:47;9.30;87.20
4245;DHT22;2136;48.502;9.194;2022-11-13T16:11:18;9.30;88.30
4245;DHT22;2136;48.502;9.194;2022-11-13T16:13:45;9.20;89.50
4245;DHT22;2136;48.502;9.194;2022-11-13T16:16:14;9.20;90.20
4245;DHT22;2136;48.502;9.194;2022-11-13T16:18:42;9.10;90.60
4245;DHT22;2136;48.502;9.194;2022-11-13T16:21:10;9.10;90.70
4245;DHT22;2136;48.502;9.194;2022-11-13T16:23:38;9.10;90.80
4245;DHT22;2136;48.502;9.194;2022-11-13T16:26:07;9.10;90.80
4245;DHT22;2136;48.502;9.194;2022-11-13T16:28:38;9.10;90.70
4245;DHT22;2136;48.502;9.194;2022-11-13T16:31:05;9.10;90.50
4245;DHT22;2136;48.502;9.194;2022-11-13T16:33:31;9.10;90.40